Terminal Aerodrome Forecast
Issued by NWS Sioux Falls, SD

Home | Current Version | Previous Version | Graphics & Text | Print | Product List | Glossary On
Versions: 1 2 3 4 5 6 7 8 9 10 11 12
000
FTUS43 KFSD 010328 RRA
TAFSUX
TAF
KSUX 010328Z 0103/0124 07014G24KT P6SM -RA OVC012
     FM010800 02015G22KT 6SM RA OVC008
     FM011100 02013G19KT P6SM VCSH OVC010
     FM011400 02014G21KT P6SM OVC020=

USA.gov is the U.S. government's official web portal to all federal, state and local government web resources and services.